createdAt,value
2018-05-25T00:00:43.959Z,52.40
2018-05-25T00:03:12.202Z,52.40
2018-05-25T00:05:40.455Z,52.50
2018-05-25T00:08:08.693Z,52.50
2018-05-25T00:10:37.720Z,52.20
2018-05-25T00:13:05.980Z,52.30
2018-05-25T00:15:34.399Z,52.30
2018-05-25T00:18:02.666Z,52.80
2018-05-25T00:20:31.681Z,53.20
2018-05-25T00:22:59.947Z,53.00
2018-05-25T00:25:28.970Z,53.10
2018-05-25T00:27:57.226Z,53.00
2018-05-25T00:30:25.499Z,52.40
2018-05-25T00:32:54.546Z,52.90
2018-05-25T00:35:22.812Z,52.80
2018-05-25T00:37:51.084Z,52.80
2018-05-25T00:40:19.349Z,52.80
2018-05-25T00:42:47.603Z,52.90
2018-05-25T00:45:16.077Z,52.80
2018-05-25T00:47:44.329Z,52.80
2018-05-25T00:50:12.598Z,52.70
2018-05-25T00:52:40.846Z,53.10
2018-05-25T00:55:20.991Z,53.20
2018-05-25T00:57:50.013Z,53.10
2018-05-25T01:00:18.322Z,53.00
2018-05-25T01:02:46.577Z,53.20
2018-05-25T01:05:14.852Z,53.20
2018-05-25T01:07:43.104Z,53.30
2018-05-25T01:10:12.147Z,53.30
2018-05-25T01:12:40.394Z,53.30
2018-05-25T01:15:08.818Z,53.20
2018-05-25T01:17:37.061Z,52.80
2018-05-25T01:20:06.111Z,53.40
2018-05-25T01:22:34.343Z,53.40
2018-05-25T01:25:02.670Z,53.40
2018-05-25T01:27:31.025Z,53.30
2018-05-25T01:29:59.271Z,53.40
2018-05-25T01:32:28.388Z,53.30
2018-05-25T01:34:57.411Z,53.20
2018-05-25T01:37:25.691Z,53.10
2018-05-25T01:39:53.923Z,53.20
2018-05-25T01:42:22.984Z,53.40
2018-05-25T01:44:51.248Z,53.20
2018-05-25T01:47:19.535Z,53.40
2018-05-25T01:49:48.000Z,53.40
2018-05-25T01:52:16.260Z,53.40
2018-05-25T01:54:45.296Z,53.60
2018-05-25T01:57:13.545Z,53.50
2018-05-25T01:59:42.606Z,53.70
2018-05-25T02:02:10.848Z,53.70
2018-05-25T02:04:39.137Z,53.80
2018-05-25T02:07:07.384Z,53.70
2018-05-25T02:09:36.465Z,53.70
2018-05-25T02:12:04.717Z,53.40
2018-05-25T02:14:32.960Z,53.80
2018-05-25T02:17:01.286Z,53.70
2018-05-25T02:19:29.564Z,53.80
2018-05-25T02:21:57.929Z,53.80
2018-05-25T02:24:26.229Z,54.30
2018-05-25T02:26:54.505Z,53.90
2018-05-25T02:29:22.755Z,53.90
2018-05-25T02:31:51.039Z,53.90
2018-05-25T02:34:19.313Z,53.90
2018-05-25T02:36:47.583Z,53.90
2018-05-25T02:39:15.854Z,53.90
2018-05-25T02:41:44.925Z,53.80
2018-05-25T02:44:13.168Z,53.70
2018-05-25T02:46:41.409Z,54.00
2018-05-25T02:49:10.440Z,54.50
2018-05-25T02:51:38.732Z,54.80
2018-05-25T02:54:07.007Z,54.80
2018-05-25T02:56:35.274Z,55.00
2018-05-25T02:59:03.546Z,54.80
2018-05-25T03:01:31.828Z,54.70
2018-05-25T03:04:00.124Z,54.60
2018-05-25T03:06:28.403Z,54.70
2018-05-25T03:08:56.656Z,54.20
2018-05-25T03:11:25.687Z,54.20
2018-05-25T03:13:53.936Z,54.20
2018-05-25T03:16:22.184Z,54.00
2018-05-25T03:18:50.831Z,54.00
2018-05-25T03:21:19.084Z,54.00
2018-05-25T03:23:47.840Z,54.00
2018-05-25T03:26:16.593Z,54.20
2018-05-25T03:28:44.823Z,54.20
2018-05-25T03:31:13.838Z,53.90
2018-05-25T03:33:42.339Z,54.40
2018-05-25T03:36:10.574Z,54.40
2018-05-25T03:38:38.824Z,54.40
2018-05-25T03:41:07.080Z,54.40
2018-05-25T03:43:35.334Z,54.40
2018-05-25T03:46:04.367Z,54.50
2018-05-25T03:48:32.619Z,54.60
2018-05-25T03:51:02.073Z,54.70
2018-05-25T03:53:30.314Z,54.50
2018-05-25T03:55:58.576Z,54.70
2018-05-25T03:58:39.688Z,54.80
2018-05-25T04:01:19.845Z,54.80
2018-05-25T04:03:49.743Z,54.90
2018-05-25T04:06:18.011Z,55.00
2018-05-25T04:08:47.360Z,54.90
2018-05-25T04:11:15.706Z,54.80
2018-05-25T04:13:44.726Z,55.60
2018-05-25T04:16:13.010Z,54.90
2018-05-25T04:18:41.385Z,55.10
2018-05-25T04:21:09.665Z,55.00
2018-05-25T04:23:37.978Z,55.30
2018-05-25T04:26:06.322Z,55.30
2018-05-25T04:28:34.569Z,55.20
2018-05-25T04:31:02.832Z,55.40
2018-05-25T04:33:31.080Z,55.50
2018-05-25T04:36:00.119Z,55.80
2018-05-25T04:38:28.359Z,55.60
2018-05-25T04:40:56.609Z,55.90
2018-05-25T04:43:26.046Z,55.90
2018-05-25T04:45:54.305Z,55.90
2018-05-25T04:48:22.677Z,55.90
2018-05-25T04:50:51.732Z,55.90
2018-05-25T04:53:19.996Z,55.80
2018-05-25T04:55:49.269Z,55.90
2018-05-25T04:58:18.472Z,55.80
2018-05-25T05:00:46.720Z,55.90
2018-05-25T05:03:14.972Z,56.00
2018-05-25T05:05:43.252Z,55.90
2018-05-25T05:08:11.678Z,55.90
2018-05-25T05:10:40.692Z,55.90
2018-05-25T05:13:08.981Z,56.00
2018-05-25T05:15:37.571Z,56.20
2018-05-25T05:18:05.816Z,56.30
2018-05-25T05:20:34.952Z,56.60
2018-05-25T05:23:03.226Z,56.40
2018-05-25T05:25:31.456Z,56.50
2018-05-25T05:27:59.801Z,56.60
2018-05-25T05:30:28.074Z,56.60
2018-05-25T05:32:56.320Z,56.70
2018-05-25T05:35:25.357Z,56.60
2018-05-25T05:37:53.635Z,56.70
2018-05-25T05:40:21.889Z,56.60
2018-05-25T05:42:51.402Z,56.40
2018-05-25T05:45:20.411Z,56.20
2018-05-25T05:47:48.696Z,56.30
2018-05-25T05:50:17.125Z,56.30
2018-05-25T05:52:45.598Z,56.20
2018-05-25T05:55:15.833Z,56.00
2018-05-25T05:57:45.837Z,55.90
2018-05-25T06:00:14.103Z,56.00
2018-05-25T06:02:42.423Z,56.10
2018-05-25T06:05:10.688Z,56.20
2018-05-25T06:07:38.948Z,56.00
2018-05-25T06:10:07.225Z,56.20
2018-05-25T06:12:35.514Z,56.30
2018-05-25T06:15:03.899Z,56.70
2018-05-25T06:17:32.251Z,56.30
2018-05-25T06:20:00.645Z,55.80
2018-05-25T06:22:29.279Z,55.50
2018-05-25T06:24:57.598Z,55.50
2018-05-25T06:27:25.862Z,55.40
2018-05-25T06:29:54.217Z,55.40
2018-05-25T06:32:22.623Z,55.40
2018-05-25T06:34:50.972Z,55.40
2018-05-25T06:37:19.393Z,55.40
2018-05-25T06:39:48.217Z,55.10
2018-05-25T06:42:16.512Z,55.10
2018-05-25T06:44:44.844Z,55.00
2018-05-25T06:47:13.183Z,55.20
2018-05-25T06:49:41.708Z,55.30
2018-05-25T06:52:10.030Z,55.20
2018-05-25T06:54:39.544Z,55.50
2018-05-25T06:57:08.833Z,55.40
2018-05-25T06:59:37.223Z,55.30
2018-05-25T07:02:05.648Z,55.60
2018-05-25T07:04:33.932Z,55.60
2018-05-25T07:07:03.758Z,55.40
2018-05-25T07:09:32.177Z,55.40
2018-05-25T07:12:00.514Z,55.30
2018-05-25T07:14:29.619Z,55.10
2018-05-25T07:16:58.394Z,55.20
2018-05-25T07:19:26.713Z,55.10
2018-05-25T07:21:56.324Z,55.10
2018-05-25T07:24:24.652Z,55.10
2018-05-25T07:26:53.090Z,54.90
2018-05-25T07:29:21.295Z,54.60
2018-05-25T07:31:49.558Z,54.60
2018-05-25T07:34:18.595Z,54.60
2018-05-25T13:05:22.328Z,56.40
2018-05-25T13:07:50.636Z,56.50
2018-05-25T13:10:19.684Z,54.50
2018-05-25T13:12:47.959Z,54.40
2018-05-25T13:15:16.234Z,53.40
2018-05-25T13:17:44.561Z,52.50
2018-05-25T13:20:13.582Z,51.20
2018-05-25T13:22:41.895Z,50.80
2018-05-25T13:25:10.178Z,50.00
2018-05-25T13:27:38.489Z,49.60
2018-05-25T13:30:06.754Z,49.50
2018-05-25T13:32:34.987Z,47.50
2018-05-25T13:35:03.991Z,47.20
2018-05-25T13:37:32.273Z,47.00
2018-05-25T13:40:01.442Z,46.50
2018-05-25T13:42:29.740Z,46.40
2018-05-25T13:44:58.765Z,45.70
2018-05-25T13:47:27.059Z,45.70
2018-05-25T13:49:55.315Z,46.70
2018-05-25T13:52:23.596Z,46.70
2018-05-25T13:54:51.845Z,46.90
2018-05-25T13:57:20.881Z,46.30
2018-05-25T13:59:49.113Z,46.30
2018-05-25T14:02:18.248Z,47.10
2018-05-25T14:04:46.542Z,46.40
2018-05-25T14:07:15.016Z,46.60
2018-05-25T14:09:44.308Z,46.80
2018-05-25T14:12:13.333Z,47.10
2018-05-25T14:14:41.621Z,47.00
2018-05-25T14:17:09.843Z,47.60
2018-05-25T14:19:38.933Z,48.30
2018-05-25T14:22:07.182Z,47.70
2018-05-25T14:24:35.443Z,47.70
2018-05-25T14:27:03.727Z,46.90
2018-05-25T14:29:31.988Z,46.50
2018-05-25T14:32:00.996Z,46.20
2018-05-25T14:34:29.255Z,46.20
2018-05-25T14:36:58.308Z,45.80
2018-05-25T14:39:26.587Z,45.70
2018-05-25T14:41:54.846Z,45.70
2018-05-25T14:44:23.140Z,45.90
2018-05-25T14:46:51.432Z,45.90
2018-05-25T14:49:19.730Z,46.20
2018-05-25T14:51:47.988Z,45.90
2018-05-25T14:54:17.773Z,45.50
2018-05-25T14:56:46.038Z,45.40
2018-05-25T14:59:14.424Z,45.40
2018-05-25T15:01:42.721Z,45.20
2018-05-25T15:04:10.975Z,45.30
2018-05-25T15:06:39.285Z,44.90
2018-05-25T15:09:08.300Z,44.30
2018-05-25T15:11:37.591Z,44.70
2018-05-25T15:14:06.037Z,44.50
2018-05-25T15:16:34.308Z,44.10
2018-05-25T15:19:03.315Z,44.60
2018-05-25T15:21:31.597Z,43.80
2018-05-25T15:24:00.610Z,43.70
2018-05-25T15:26:29.653Z,43.70
2018-05-25T15:28:57.997Z,43.70
2018-05-25T15:31:26.245Z,43.70
2018-05-25T15:33:55.264Z,42.30
2018-05-25T15:36:24.289Z,41.90
2018-05-25T15:38:52.545Z,41.80
2018-05-25T15:41:21.618Z,42.40
2018-05-25T15:43:49.929Z,42.40
2018-05-25T15:46:18.993Z,41.90
2018-05-25T15:48:47.184Z,41.90
2018-05-25T15:51:16.231Z,42.00
2018-05-25T15:53:44.492Z,41.40
2018-05-25T15:56:12.752Z,41.20
2018-05-25T15:58:41.831Z,41.30
2018-05-25T16:01:11.577Z,41.40
2018-05-25T16:03:40.616Z,41.20
2018-05-25T16:06:08.884Z,41.20
2018-05-25T16:08:37.185Z,41.20
2018-05-25T16:11:06.135Z,40.90
2018-05-25T16:13:35.175Z,41.70
2018-05-25T16:16:03.441Z,41.00
2018-05-25T16:18:31.764Z,41.00
2018-05-25T16:21:00.017Z,40.90
2018-05-25T16:23:28.333Z,40.30
2018-05-25T16:25:58.099Z,40.50
2018-05-25T16:28:26.344Z,40.50
2018-05-25T16:30:55.352Z,40.20
2018-05-25T16:33:23.620Z,40.30
2018-05-25T16:35:52.641Z,41.50
2018-05-25T16:38:20.903Z,41.50
2018-05-25T16:40:49.886Z,42.10
2018-05-25T16:43:19.113Z,42.00
2018-05-25T16:45:47.352Z,42.00
2018-05-25T16:48:15.603Z,42.30
2018-05-25T16:50:44.124Z,42.70
2018-05-25T16:53:12.344Z,42.30
2018-05-25T16:55:40.582Z,42.30
2018-05-25T16:58:09.615Z,43.00
2018-05-25T17:00:38.628Z,43.00
2018-05-25T17:03:06.890Z,42.90
2018-05-25T17:05:35.146Z,42.90
2018-05-25T17:08:04.314Z,43.00
2018-05-25T17:10:32.564Z,42.30
2018-05-25T17:13:00.792Z,42.20
2018-05-25T17:15:29.124Z,42.30
2018-05-25T17:17:57.361Z,42.50
2018-05-25T17:20:26.362Z,42.70
2018-05-25T17:22:55.407Z,42.70
2018-05-25T17:25:23.657Z,42.60
2018-05-25T17:27:52.685Z,42.50
2018-05-25T17:30:20.928Z,42.50
2018-05-25T17:32:49.925Z,41.60
2018-05-25T17:35:19.188Z,41.90
2018-05-25T17:37:47.429Z,41.90
2018-05-25T17:40:15.659Z,42.00
2018-05-25T17:42:43.948Z,42.20
2018-05-25T17:45:12.181Z,42.00
2018-05-25T17:47:40.421Z,41.90
2018-05-25T17:50:08.677Z,41.60
2018-05-25T17:52:36.917Z,42.60
2018-05-25T17:55:05.173Z,42.10
2018-05-25T17:57:34.199Z,41.60
2018-05-25T18:00:02.445Z,41.60
2018-05-25T18:02:31.784Z,41.70
2018-05-25T18:05:00.033Z,41.70
2018-05-25T18:07:29.066Z,41.80
2018-05-25T18:09:57.294Z,41.80
2018-05-25T18:12:25.531Z,41.80
2018-05-25T18:14:53.771Z,41.90
2018-05-25T18:17:22.867Z,42.10
2018-05-25T18:19:51.045Z,42.00
2018-05-25T18:22:20.049Z,42.60
2018-05-25T18:24:49.084Z,42.80
2018-05-25T18:27:17.350Z,42.80
2018-05-25T18:29:46.350Z,43.30
2018-05-25T18:32:14.945Z,43.20
2018-05-25T18:34:43.172Z,43.20
2018-05-25T18:37:12.218Z,43.30
2018-05-25T18:39:40.826Z,43.30
2018-05-25T18:42:09.069Z,43.30
2018-05-25T18:44:37.320Z,43.30
2018-05-25T18:47:06.352Z,43.30
2018-05-25T18:49:34.636Z,43.30
2018-05-25T18:52:03.615Z,43.20
2018-05-25T18:54:33.577Z,43.30
2018-05-25T18:57:01.830Z,43.30
2018-05-25T18:59:30.079Z,43.20
2018-05-25T19:01:59.697Z,44.20
2018-05-25T19:04:28.713Z,44.10
2018-05-25T19:06:56.987Z,44.10
2018-05-25T19:09:26.057Z,44.20
2018-05-25T19:11:54.341Z,44.20
2018-05-25T19:14:22.776Z,44.30
2018-05-25T19:16:51.103Z,44.30
2018-05-25T19:19:19.448Z,44.40
2018-05-25T19:21:48.357Z,44.50
2018-05-25T19:24:16.637Z,44.50
2018-05-25T19:26:44.905Z,44.50
2018-05-25T19:29:13.227Z,44.60
2018-05-25T19:31:44.209Z,44.80
2018-05-25T19:34:12.583Z,44.80
2018-05-25T19:36:42.096Z,44.90
2018-05-25T19:39:10.385Z,44.90
2018-05-25T19:41:38.695Z,45.10
2018-05-25T19:44:06.979Z,45.30
2018-05-25T19:46:35.973Z,45.40
2018-05-25T19:49:04.247Z,45.50
2018-05-25T19:51:32.483Z,45.60
2018-05-25T19:54:01.511Z,45.60
2018-05-25T19:56:29.789Z,45.60
2018-05-25T19:58:58.053Z,45.60
2018-05-25T20:01:27.216Z,45.90
2018-05-25T20:03:57.132Z,46.50
2018-05-25T20:06:25.297Z,45.80
2018-05-25T20:08:53.571Z,46.00
2018-05-25T20:11:21.883Z,46.20
2018-05-25T20:13:50.211Z,46.20
2018-05-25T20:16:18.527Z,47.10
2018-05-25T20:18:46.823Z,45.90
2018-05-25T20:21:15.049Z,46.30
2018-05-25T20:23:43.313Z,46.30
2018-05-25T20:26:11.922Z,46.50
2018-05-25T20:28:40.262Z,46.70
2018-05-25T20:31:09.337Z,47.20
2018-05-25T20:33:37.652Z,47.20
2018-05-25T20:36:07.008Z,47.30
2018-05-25T20:38:35.245Z,47.20
2018-05-25T20:41:03.479Z,47.20
2018-05-25T20:43:31.744Z,47.10
2018-05-25T20:45:59.972Z,47.10
2018-05-25T20:48:29.025Z,47.10
2018-05-25T20:50:57.300Z,47.10
2018-05-25T20:53:25.546Z,47.10
2018-05-25T20:55:54.567Z,47.10
2018-05-25T20:58:22.827Z,47.10
2018-05-25T21:00:51.881Z,47.40
2018-05-25T21:03:20.143Z,47.50
2018-05-25T21:05:48.525Z,47.70
2018-05-25T21:08:16.827Z,47.90
2018-05-25T21:10:45.263Z,48.10
2018-05-25T21:13:13.553Z,48.10
2018-05-25T21:15:41.879Z,48.20
2018-05-25T21:18:10.139Z,48.20
2018-05-25T21:20:38.405Z,48.20
2018-05-25T21:23:06.697Z,48.20
2018-05-25T21:25:34.913Z,48.30
2018-05-25T21:28:03.942Z,48.50
2018-05-25T21:30:32.193Z,48.50
2018-05-25T21:33:01.195Z,48.50
2018-05-25T21:35:30.221Z,48.50
2018-05-25T21:37:58.488Z,48.50
2018-05-25T21:40:26.763Z,48.50
2018-05-25T21:42:55.884Z,48.60
2018-05-25T21:45:24.372Z,48.60
2018-05-25T21:47:52.607Z,48.70
2018-05-25T21:50:20.872Z,48.80
2018-05-25T21:52:49.125Z,49.40
2018-05-25T21:55:17.394Z,48.80
2018-05-25T21:57:45.692Z,48.90
2018-05-25T22:00:13.979Z,49.00
2018-05-25T22:02:42.220Z,48.90
2018-05-25T22:05:10.481Z,48.80
2018-05-25T22:07:39.508Z,48.90
2018-05-25T22:10:07.786Z,49.50
2018-05-25T22:12:36.041Z,48.80
2018-05-25T22:15:05.056Z,48.90
2018-05-25T22:17:33.449Z,49.00
2018-05-25T22:20:01.737Z,48.90
2018-05-25T22:22:29.997Z,49.00
2018-05-25T22:24:59.236Z,49.00
2018-05-25T22:27:27.488Z,49.00
2018-05-25T22:29:55.747Z,49.10
2018-05-25T22:32:24.777Z,50.30
2018-05-25T22:34:53.100Z,49.60
2018-05-25T22:37:21.376Z,49.70
2018-05-25T22:39:50.437Z,49.70
2018-05-25T22:42:30.672Z,49.70
2018-05-25T22:45:17.123Z,49.70
2018-05-25T22:48:03.284Z,49.80
2018-05-25T22:50:49.575Z,50.20
2018-05-25T22:53:29.835Z,50.20
2018-05-25T22:55:58.210Z,50.20
2018-05-25T22:58:26.455Z,50.20
2018-05-25T23:00:55.658Z,50.20
2018-05-25T23:03:23.921Z,50.30
2018-05-25T23:05:52.200Z,50.30
2018-05-25T23:08:21.227Z,50.30
2018-05-25T23:10:49.481Z,50.30
2018-05-25T23:13:17.725Z,50.30
2018-05-25T23:15:46.021Z,50.30
2018-05-25T23:18:14.305Z,50.20
2018-05-25T23:20:43.332Z,50.20
2018-05-25T23:23:12.359Z,50.20
2018-05-25T23:25:40.651Z,50.10
2018-05-25T23:28:09.101Z,50.20
2018-05-25T23:30:37.405Z,50.10
2018-05-25T23:33:05.689Z,50.10
2018-05-25T23:35:33.942Z,50.20
2018-05-25T23:38:02.229Z,50.10
2018-05-25T23:40:30.544Z,50.00
2018-05-25T23:42:58.813Z,49.90
2018-05-25T23:45:27.974Z,49.90
2018-05-25T23:47:57.018Z,50.30
2018-05-25T23:50:25.262Z,50.20
2018-05-25T23:52:53.536Z,50.30
2018-05-25T23:55:22.548Z,50.50
2018-05-25T23:57:50.824Z,50.40
